Station WKXA1 - Safe Harbor Met Station, Weeks Bay Reserve, AL Image indicating link to RSS feed of recent meteorological observations for station WKXA1


Conditions at WKXA1 as of
(11:45 am CDT)
1645 GMT on 05/08/2026:
     

Click on the graph icon in the table below to see a time series plot of the last five days of that observation.

5-day plot - Wind Direction Wind Direction (WDIR):ENE ( 60 deg true )
5-day plot - Wind Speed Wind Speed (WSPD): 1.9 kts
5-day plot - Atmospheric Pressure Atmospheric Pressure (PRES):29.94 in
5-day plot - Air Temperature Air Temperature (ATMP): 71.2 °F
5-day plot - Dew Point Dew Point (DEWP): 66.6 °F
5-day plot -  Wind Speed, Wind Gust and Atmospheric Pressure Combined plot of Wind Speed, Gust, and Air Pressure
Previous observations
TIME
(CDT)
5-day plot - Wind Direction
WDIR
 
5-day plot - Wind Speed
WSPD
kts
5-day plot - Wind Gust
GST
kts
5-day plot - Wave Height
WVHT
ft
5-day plot - Dominant Wave Period
DPD
sec
5-day plot - Average Wave Period
APD
sec
5-day plot - Mean Wave Direction
MWD
 
5-day plot - Atmospheric Pressure
PRES
in
5-day plot - Pressure Tendency
PTDY
in
5-day plot - Air Temperature
ATMP
°F
5-day plot - Water Temperature
WTMP
°F
5-day plot - Dew Point
DEWP
°F
5-day plot - Salinity
SAL
psu
5-day plot - Visibility
VIS
nmi
5-day plot - Tide (above MLLW)
TIDE
ft
2026-05-08 11:30 amENE 2.9-----29.97- 71.2- 66.2---
2026-05-08 11:15 am E 1.9-----29.97- 70.7- 66.0---
2026-05-08 11:00 amENE 2.9-----29.97-0.03 70.2- 65.5---
2026-05-08 10:45 amENE 1.9-----29.97- 70.2- 65.1---
2026-05-08 10:30 amENE 2.9-----29.97- 70.0- 65.3---
2026-05-08 10:15 am NE 1.9-----29.97- 69.3- 64.6---
2026-05-08 10:00 am NE 2.9-----29.97+0.00 68.7- 64.0---
2026-05-08 09:45 am NE 2.9-----29.97- 68.7- 64.4---
2026-05-08 09:30 am NE 2.9-----29.97- 68.7- 64.4---
2026-05-08 09:15 amENE 4.1-----29.97- 68.5- 63.9---
2026-05-08 09:00 amENE 4.1-----29.97+0.00 68.5- 63.9---
2026-05-08 08:45 amENE 4.1-----29.97- 67.6- 63.7---
2026-05-08 08:30 amENE 1.9-----30.00- 66.7- 63.9---
2026-05-08 08:15 am NE 1.9-----30.00- 66.0- 63.7---
2026-05-08 08:00 am- 0.0-----30.00+0.06 65.7- 63.7---
2026-05-08 07:45 am NE 1.0-----30.00- 65.7- 63.0---
2026-05-08 07:30 am N 1.0-----30.00- 66.2- 62.6---
2026-05-08 07:15 amNNE 1.0-----30.00- 66.6- 62.2---
2026-05-08 07:00 am NE 1.9-----29.97+0.03 66.4- 62.4---
2026-05-08 06:45 am NE 2.9-----29.97- 66.2- 62.2---
2026-05-08 06:30 am NE 2.9-----29.97- 66.2- 62.6---
2026-05-08 06:15 am NE 2.9-----29.97- 66.2- 62.6---
2026-05-08 06:00 amNNE 1.9-----29.97+0.03 66.2- 62.6---
2026-05-08 05:45 amNNE 1.9-----29.97- 66.2- 62.6---
2026-05-08 05:30 am NE 1.9-----29.94- 66.2- 62.6---
2026-05-08 05:15 amNNE 1.0-----29.94- 66.2- 62.6---
2026-05-08 05:00 am N 1.9-----29.94+0.00 66.2- 63.0---
2026-05-08 04:45 amNNE 1.9-----29.94- 66.2- 63.3---
2026-05-08 04:30 am NE 1.9-----29.94- 66.2- 63.3---
2026-05-08 04:15 amNNE 1.9-----29.94- 66.0- 63.1---
2026-05-08 04:00 amENE 1.0-----29.94+0.00 66.2- 63.3---
2026-05-08 03:45 am N 1.9-----29.94- 66.2- 63.5---
2026-05-08 03:30 amNNE 1.9-----29.94- 66.0- 63.3---
2026-05-08 03:15 am NE 1.9-----29.94- 66.0- 63.3---
2026-05-08 03:00 amNNE 1.9-----29.94-0.03 66.2- 63.9---
2026-05-08 02:45 am N 1.9-----29.94- 66.4- 63.7---
2026-05-08 02:30 amNNE 1.9-----29.94- 66.4- 63.7---
2026-05-08 02:15 am NE 1.0-----29.94- 66.4- 63.7---
2026-05-08 02:00 amNNE 1.0-----29.94+0.00 66.6- 63.9---
2026-05-08 01:45 am N 1.0-----29.94- 66.6- 63.9---
2026-05-08 01:30 am N 1.0-----29.94- 66.6- 63.7---
2026-05-08 01:15 am N 1.0-----29.94- 66.7- 63.9---
2026-05-08 01:00 am N 1.9-----29.94+0.00 67.1- 64.2---
2026-05-08 12:45 am N 1.9-----29.94- 67.3- 64.0---
2026-05-08 12:30 amNNW 1.9-----29.94- 67.5- 64.8---
2026-05-08 12:15 am N 1.9-----29.94- 68.0- 65.7---
2026-05-08 12:00 am N 1.0-----29.97+0.03 68.2- 65.1---
2026-05-07 11:45 pm N 1.9-----29.97- 68.4- 65.3---
2026-05-07 11:30 pm N 1.0-----29.97- 68.7- 66.0---
2026-05-07 11:15 pmNNW 1.0-----29.97- 69.1- 66.4---
2026-05-07 11:00 pm N 1.0-----29.94+0.03 69.6- 66.6---
2026-05-07 10:45 pm NE 1.9-----29.94- 69.8- 66.6---
2026-05-07 10:30 pmNNE 1.9-----29.97- 70.3- 66.7---
2026-05-07 10:15 pm N 1.9-----29.94- 70.9- 67.5---
2026-05-07 10:00 pm N 1.9-----29.94+0.03 71.4- 68.4---
2026-05-07 09:45 pmNNW 1.0-----29.97- 72.1- 68.5---
2026-05-07 09:30 pm N 1.0-----29.97- 72.5- 68.5---
2026-05-07 09:15 pmNNW 1.0-----29.97- 72.7- 68.7---
2026-05-07 09:00 pm N 1.0-----29.94+0.03 72.9- 68.5---
2026-05-07 08:45 pm- 0.0-----29.94- 73.0- 69.1---
2026-05-07 08:30 pm- 0.0-----29.94- 73.2- 69.3---
2026-05-07 08:15 pm- 0.0-----29.94- 73.4- 69.1---
2026-05-07 08:00 pm- 0.0-----29.91+0.00 73.8- 69.1---
2026-05-07 07:45 pmNNW 1.0-----29.91- 73.9- 70.0---
2026-05-07 07:30 pm- 0.0-----29.91- 74.1- 70.2---
2026-05-07 07:15 pm- 0.0-----29.91- 74.3- 70.3---
2026-05-07 07:00 pmNNW 1.0-----29.91+0.00 74.7- 70.7---
2026-05-07 06:45 pm- 0.0-----29.91- 75.0- 70.7---
2026-05-07 06:30 pmNNW 1.0-----29.91- 75.4- 71.1---
2026-05-07 06:15 pmNNW 1.0-----29.91- 75.6- 71.6---
2026-05-07 06:00 pm- 0.0-----29.91+0.00 75.9- 71.8---
2026-05-07 05:45 pm- 0.0-----29.91- 76.1- 71.4---
2026-05-07 05:30 pm NW 1.9-----29.91- 76.5- 71.4---
2026-05-07 05:15 pmWNW 1.9-----29.91- 76.8- 72.5---
2026-05-07 05:00 pm W 1.0-----29.91+0.00 77.4- 73.2---
2026-05-07 04:45 pm- 0.0-----29.91- 78.1- 73.6---
2026-05-07 04:30 pm- 0.0-----29.91- 77.9- 73.4---
2026-05-07 04:15 pmNNW 1.0-----29.91- 77.4- 73.0---
2026-05-07 04:00 pm N 1.9-----29.91-0.03 77.5- 72.9---
2026-05-07 03:45 pm N 1.0-----29.91- 77.4- 73.0---
2026-05-07 03:30 pm NE 1.0-----29.91- 77.2- 72.9---
2026-05-07 03:15 pm NE 1.0-----29.91- 75.7- 73.0---
2026-05-07 03:00 pm N 1.0-----29.91-0.03 74.7- 72.9---
2026-05-07 02:45 pm N 1.0-----29.91- 73.9- 72.7---
2026-05-07 02:30 pm N 1.9-----29.91- 73.6- 72.7---
2026-05-07 02:15 pmNNE 1.9-----29.91- 73.2- 72.7---
2026-05-07 02:00 pm- 0.0-----29.91-0.03 73.0- 72.7---
2026-05-07 01:45 pm- 0.0-----29.91- 73.0- 72.5---
2026-05-07 01:30 pm- 0.0-----29.94- 73.0- 72.5---
2026-05-07 01:15 pm- 0.0-----29.94- 73.0- 72.5---
2026-05-07 01:00 pm- 0.0-----29.94-0.03 72.9- 72.0---